createdAt,value
2023-04-06T00:00:04.449Z,-0.31
2023-04-06T00:01:04.447Z,-0.32
2023-04-06T00:02:04.523Z,-0.34
2023-04-06T00:03:04.668Z,-0.35
2023-04-06T00:04:04.531Z,-0.35
2023-04-06T00:05:04.405Z,-0.35
2023-04-06T00:06:04.425Z,-0.38
2023-04-06T00:07:04.384Z,-0.35
2023-04-06T00:08:04.365Z,-0.35
2023-04-06T00:09:04.363Z,-0.38
2023-04-06T00:10:04.355Z,-0.39
2023-04-06T00:11:04.347Z,-0.41
2023-04-06T00:12:04.319Z,-0.42
2023-04-06T00:13:04.308Z,-0.47
2023-04-06T00:14:04.329Z,-0.49
2023-04-06T00:15:04.264Z,-0.50
2023-04-06T00:16:04.340Z,-0.55
2023-04-06T00:17:04.353Z,-0.53
2023-04-06T00:18:04.475Z,-0.55
2023-04-06T00:19:04.236Z,-0.55
2023-04-06T00:20:04.288Z,-0.56
2023-04-06T00:21:04.221Z,-0.55
2023-04-06T00:22:04.235Z,-0.55
2023-04-06T00:23:04.231Z,-0.55
2023-04-06T00:24:04.214Z,-0.56
2023-04-06T00:25:04.193Z,-0.56
2023-04-06T00:26:04.187Z,-0.58
2023-04-06T00:27:04.148Z,-0.58
2023-04-06T00:28:04.165Z,-0.58
2023-04-06T00:29:04.116Z,-0.58
2023-04-06T00:30:04.108Z,-0.59
2023-04-06T00:31:04.111Z,-0.59
2023-04-06T00:32:04.149Z,-0.59
2023-04-06T00:33:04.127Z,-0.59
2023-04-06T00:34:04.085Z,-0.59
2023-04-06T00:35:04.076Z,-0.59
2023-04-06T00:36:04.110Z,-0.59
2023-04-06T00:37:04.073Z,-0.62
2023-04-06T00:38:04.032Z,-0.62
2023-04-06T00:39:04.021Z,-0.63
2023-04-06T00:40:04.025Z,-0.65
2023-04-06T00:41:03.992Z,-0.65
2023-04-06T00:42:03.989Z,-0.67
2023-04-06T00:43:03.995Z,-0.68
2023-04-06T00:44:03.966Z,-0.70
2023-04-06T00:45:03.984Z,-0.71
2023-04-06T00:46:03.993Z,-0.73
2023-04-06T00:47:03.947Z,-0.71
2023-04-06T00:48:04.002Z,-0.73
2023-04-06T00:49:03.940Z,-0.74
2023-04-06T00:50:03.922Z,-0.73
2023-04-06T00:51:03.902Z,-0.76
2023-04-06T00:52:03.888Z,-0.76
2023-04-06T00:53:03.881Z,-0.77
2023-04-06T00:54:03.883Z,-0.77
2023-04-06T00:55:03.888Z,-0.78
2023-04-06T00:56:03.856Z,-0.81
2023-04-06T00:57:03.853Z,-0.81
2023-04-06T00:58:03.826Z,-0.80
2023-04-06T00:59:03.836Z,-0.78
2023-04-06T01:00:03.796Z,-0.80
2023-04-06T01:01:03.818Z,-0.80
2023-04-06T01:02:03.772Z,-0.81
2023-04-06T01:03:03.809Z,-0.81
2023-04-06T01:04:03.775Z,-0.85
2023-04-06T01:05:03.796Z,-0.85
2023-04-06T01:06:03.744Z,-0.89
2023-04-06T01:07:03.752Z,-0.90
2023-04-06T01:08:03.740Z,-0.90
2023-04-06T01:09:03.701Z,-0.90
2023-04-06T01:10:03.693Z,-0.89
2023-04-06T01:11:03.659Z,-0.92
2023-04-06T01:12:03.707Z,-0.93
2023-04-06T01:13:03.668Z,-0.96
2023-04-06T01:14:03.665Z,-0.96
2023-04-06T01:15:03.635Z,-0.97
2023-04-06T01:16:03.677Z,-1.00
2023-04-06T01:17:03.671Z,-1.00
2023-04-06T01:18:03.665Z,-1.03
2023-04-06T01:19:03.615Z,-1.02
2023-04-06T01:20:03.598Z,-1.03
2023-04-06T01:21:03.579Z,-1.05
2023-04-06T01:22:03.582Z,-1.05
2023-04-06T01:23:03.556Z,-1.08
2023-04-06T01:24:03.556Z,-1.08
2023-04-06T01:25:03.538Z,-1.13
2023-04-06T01:26:03.524Z,-1.11
2023-04-06T01:27:03.514Z,-1.14
2023-04-06T01:28:03.492Z,-1.14
2023-04-06T01:29:03.498Z,-1.15
2023-04-06T01:30:03.478Z,-1.14
2023-04-06T01:31:03.476Z,-1.13
2023-04-06T01:32:03.468Z,-1.14
2023-04-06T01:33:03.498Z,-1.14
2023-04-06T01:34:03.438Z,-1.14
2023-04-06T01:35:03.411Z,-1.14
2023-04-06T01:36:03.456Z,-1.11
2023-04-06T01:37:03.391Z,-1.10
2023-04-06T01:38:03.408Z,-1.11
2023-04-06T01:39:03.418Z,-1.13
2023-04-06T01:40:03.417Z,-1.11
2023-04-06T01:41:03.359Z,-1.13
2023-04-06T01:42:03.339Z,-1.13
2023-04-06T01:43:03.338Z,-1.15
2023-04-06T01:44:03.332Z,-1.14
2023-04-06T01:45:03.310Z,-1.14
2023-04-06T01:46:03.355Z,-1.15
2023-04-06T01:47:03.341Z,-1.14
2023-04-06T01:48:03.315Z,-1.14
2023-04-06T01:49:03.248Z,-1.15
2023-04-06T01:50:03.269Z,-1.17
2023-04-06T01:51:03.254Z,-1.20
2023-04-06T01:52:03.234Z,-1.20
2023-04-06T01:53:03.233Z,-1.23
2023-04-06T01:54:03.226Z,-1.21
2023-04-06T01:55:03.218Z,-1.23
2023-04-06T01:56:03.214Z,-1.23
2023-04-06T01:57:03.181Z,-1.25
2023-04-06T01:58:03.194Z,-1.26
2023-04-06T01:59:03.236Z,-1.23
2023-04-06T02:00:03.169Z,-1.25
2023-04-06T02:01:03.199Z,-1.25
2023-04-06T02:02:03.177Z,-1.29
2023-04-06T02:03:03.215Z,-1.29
2023-04-06T02:04:03.118Z,-1.31
2023-04-06T02:05:03.110Z,-1.32
2023-04-06T02:06:03.065Z,-1.33
2023-04-06T02:07:03.079Z,-1.33
2023-04-06T02:08:03.100Z,-1.33
2023-04-06T02:09:03.067Z,-1.35
2023-04-06T02:10:03.049Z,-1.36
2023-04-06T02:11:03.032Z,-1.36
2023-04-06T02:12:03.053Z,-1.36
2023-04-06T02:13:03.033Z,-1.38
2023-04-06T02:14:03.006Z,-1.38
2023-04-06T02:15:02.981Z,-1.38
2023-04-06T02:16:03.026Z,-1.43
2023-04-06T02:17:02.968Z,-1.44
2023-04-06T02:18:03.021Z,-1.44
2023-04-06T02:19:02.994Z,-1.46
2023-04-06T02:20:02.966Z,-1.47
2023-04-06T02:21:02.948Z,-1.47
2023-04-06T02:22:02.921Z,-1.47
2023-04-06T02:23:02.908Z,-1.47
2023-04-06T02:24:02.874Z,-1.47
2023-04-06T02:25:02.873Z,-1.50
2023-04-06T02:26:02.882Z,-1.51
2023-04-06T02:27:02.869Z,-1.51
2023-04-06T02:28:02.863Z,-1.54
2023-04-06T02:29:02.829Z,-1.54
2023-04-06T02:30:02.866Z,-1.54
2023-04-06T02:31:02.838Z,-1.56
2023-04-06T02:32:02.826Z,-1.56
2023-04-06T02:33:02.949Z,-1.54
2023-04-06T02:34:02.788Z,-1.54
2023-04-06T02:35:02.788Z,-1.53
2023-04-06T02:36:02.825Z,-1.53
2023-04-06T02:37:02.764Z,-1.53
2023-04-06T02:38:02.728Z,-1.54
2023-04-06T02:39:02.720Z,-1.57
2023-04-06T02:40:02.742Z,-1.54
2023-04-06T02:41:02.731Z,-1.57
2023-04-06T02:42:02.748Z,-1.57
2023-04-06T02:43:02.689Z,-1.59
2023-04-06T02:44:02.703Z,-1.61
2023-04-06T02:45:02.646Z,-1.61
2023-04-06T02:46:02.749Z,-1.65
2023-04-06T02:47:02.644Z,-1.67
2023-04-06T02:48:02.735Z,-1.67
2023-04-06T02:49:02.636Z,-1.67
2023-04-06T02:50:02.602Z,-1.68
2023-04-06T02:51:02.594Z,-1.70
2023-04-06T02:52:02.595Z,-1.70
2023-04-06T02:53:02.592Z,-1.70
2023-04-06T02:54:02.564Z,-1.71
2023-04-06T02:55:02.560Z,-1.71
2023-04-06T02:56:02.560Z,-1.72
2023-04-06T02:57:02.542Z,-1.72
2023-04-06T02:58:02.540Z,-1.72
2023-04-06T02:59:02.575Z,-1.71
2023-04-06T03:00:02.497Z,-1.70
2023-04-06T03:01:02.593Z,-1.72
2023-04-06T03:02:02.476Z,-1.72
2023-04-06T03:03:02.588Z,-1.74
2023-04-06T03:04:02.470Z,-1.74
2023-04-06T03:05:02.479Z,-1.77
2023-04-06T03:06:02.441Z,-1.77
2023-04-06T03:07:02.430Z,-1.80
2023-04-06T03:08:02.434Z,-1.80
2023-04-06T03:09:02.410Z,-1.82
2023-04-06T03:10:02.436Z,-1.82
2023-04-06T03:11:02.388Z,-1.86
2023-04-06T03:12:02.369Z,-1.86
2023-04-06T03:13:02.400Z,-1.86
2023-04-06T03:14:02.363Z,-1.85
2023-04-06T03:15:02.368Z,-1.85
2023-04-06T03:16:02.511Z,-1.85
2023-04-06T03:17:02.335Z,-1.85
2023-04-06T03:18:02.337Z,-1.83
2023-04-06T03:19:02.302Z,-1.85
2023-04-06T03:20:02.282Z,-1.85
2023-04-06T03:21:02.281Z,-1.85
2023-04-06T03:22:02.281Z,-1.85
2023-04-06T03:23:02.286Z,-1.83
2023-04-06T03:24:02.251Z,-1.85
2023-04-06T03:25:03.734Z,-1.86
2023-04-06T03:26:02.241Z,-1.88
2023-04-06T03:27:02.225Z,-1.89
2023-04-06T03:28:02.244Z,-1.89
2023-04-06T03:29:02.228Z,-1.90
2023-04-06T03:30:02.188Z,-1.90
2023-04-06T03:31:02.177Z,-1.92
2023-04-06T03:32:02.149Z,-1.90
2023-04-06T03:33:02.136Z,-1.92
2023-04-06T03:34:02.139Z,-1.93
2023-04-06T03:35:02.098Z,-1.92
2023-04-06T03:36:02.182Z,-1.92
2023-04-06T03:37:09.902Z,-1.93
2023-04-06T03:38:02.117Z,-1.90
2023-04-06T03:39:02.100Z,-1.93
2023-04-06T03:40:02.088Z,-1.92
2023-04-06T03:41:02.056Z,-1.93
2023-04-06T03:42:02.044Z,-1.92
2023-04-06T03:43:02.045Z,-1.95
2023-04-06T03:44:02.022Z,-1.96
2023-04-06T03:45:02.023Z,-1.96
2023-04-06T03:46:02.006Z,-1.98
2023-04-06T03:47:01.985Z,-1.98
2023-04-06T03:48:02.057Z,-1.96
2023-04-06T03:49:01.982Z,-2.00
2023-04-06T03:50:01.949Z,-2.00
2023-04-06T03:51:01.966Z,-2.00
2023-04-06T03:52:01.927Z,-2.01
2023-04-06T03:53:01.940Z,-2.03
2023-04-06T03:54:01.932Z,-2.04
2023-04-06T03:55:01.911Z,-2.07
2023-04-06T03:56:04.630Z,-2.07
2023-04-06T03:57:01.905Z,-2.07
2023-04-06T03:58:01.882Z,-2.08
2023-04-06T03:59:01.883Z,-2.10
2023-04-06T04:00:01.873Z,-2.08
2023-04-06T04:01:01.873Z,-2.11
2023-04-06T04:02:01.943Z,-2.10
2023-04-06T04:03:01.945Z,-2.11
2023-04-06T04:04:01.863Z,-2.13
2023-04-06T04:05:01.815Z,-2.14
2023-04-06T04:06:01.800Z,-2.14
2023-04-06T04:07:01.804Z,-2.14
2023-04-06T04:08:01.762Z,-2.13
2023-04-06T04:09:01.736Z,-2.16
2023-04-06T04:10:01.753Z,-2.19
2023-04-06T04:11:01.733Z,-2.19
2023-04-06T04:12:01.707Z,-2.18
2023-04-06T04:13:01.717Z,-2.18
2023-04-06T04:14:01.695Z,-2.16
2023-04-06T04:15:01.695Z,-2.19
2023-04-06T04:16:01.728Z,-2.19
2023-04-06T04:17:01.712Z,-2.22
2023-04-06T04:18:01.671Z,-2.24
2023-04-06T04:19:01.652Z,-2.24
2023-04-06T04:20:01.635Z,-2.24
2023-04-06T04:21:01.617Z,-2.25
2023-04-06T04:22:01.608Z,-2.24
2023-04-06T04:23:01.594Z,-2.26
2023-04-06T04:24:01.581Z,-2.25
2023-04-06T04:25:01.584Z,-2.25
2023-04-06T04:26:01.573Z,-2.26
2023-04-06T04:27:01.553Z,-2.26
2023-04-06T04:28:01.581Z,-2.25
2023-04-06T04:29:01.538Z,-2.25
2023-04-06T04:30:01.525Z,-2.25
2023-04-06T04:31:01.539Z,-2.26
2023-04-06T04:32:01.549Z,-2.26
2023-04-06T04:33:01.529Z,-2.28
2023-04-06T04:34:01.479Z,-2.29
2023-04-06T04:35:01.497Z,-2.28
2023-04-06T04:36:01.486Z,-2.28
2023-04-06T04:37:01.467Z,-2.29
2023-04-06T04:38:01.443Z,-2.29
2023-04-06T04:39:01.451Z,-2.29
2023-04-06T04:40:01.418Z,-2.28
2023-04-06T04:41:01.395Z,-2.29
2023-04-06T04:42:01.440Z,-2.32
2023-04-06T04:43:01.417Z,-2.33
2023-04-06T04:44:01.397Z,-2.32
2023-04-06T04:45:01.372Z,-2.32
2023-04-06T04:46:01.418Z,-2.29
2023-04-06T04:47:01.365Z,-2.32
2023-04-06T04:48:01.443Z,-2.33
2023-04-06T04:49:01.319Z,-2.33
2023-04-06T04:50:01.299Z,-2.35
2023-04-06T04:51:01.322Z,-2.37
2023-04-06T04:52:01.300Z,-2.35
2023-04-06T04:53:01.353Z,-2.35
2023-04-06T04:54:01.275Z,-2.37
2023-04-06T04:55:01.263Z,-2.37
2023-04-06T04:56:01.271Z,-2.38
2023-04-06T04:57:01.265Z,-2.40
2023-04-06T04:58:01.255Z,-2.43
2023-04-06T04:59:01.261Z,-2.43
2023-04-06T05:00:01.202Z,-2.43
2023-04-06T05:01:01.251Z,-2.41
2023-04-06T05:02:01.262Z,-2.41
2023-04-06T05:03:01.335Z,-2.41
2023-04-06T05:04:01.143Z,-2.40
2023-04-06T05:05:01.180Z,-2.40
2023-04-06T05:06:01.148Z,-2.41
2023-04-06T05:07:01.140Z,-2.40
2023-04-06T05:08:01.122Z,-2.40
2023-04-06T05:09:01.133Z,-2.40
2023-04-06T05:10:01.145Z,-2.40
2023-04-06T05:11:01.105Z,-2.40
2023-04-06T05:12:01.100Z,-2.38
2023-04-06T05:13:01.073Z,-2.40
2023-04-06T05:14:01.875Z,-2.38
2023-04-06T05:15:01.052Z,-2.40
2023-04-06T05:16:01.106Z,-2.41
2023-04-06T05:17:01.040Z,-2.40
2023-04-06T05:18:01.263Z,-2.41
2023-04-06T05:19:01.008Z,-2.41
2023-04-06T05:20:01.037Z,-2.41
2023-04-06T05:21:01.031Z,-2.38
2023-04-06T05:22:00.966Z,-2.40
2023-04-06T05:23:01.007Z,-2.38
2023-04-06T05:24:00.965Z,-2.40
2023-04-06T05:25:00.948Z,-2.40
2023-04-06T05:26:00.924Z,-2.38
2023-04-06T05:27:00.965Z,-2.40
2023-04-06T05:28:00.941Z,-2.38
2023-04-06T05:29:00.912Z,-2.40
2023-04-06T05:30:00.896Z,-2.40
2023-04-06T05:31:00.934Z,-2.40
2023-04-06T05:32:00.924Z,-2.41
2023-04-06T05:33:01.085Z,-2.38
2023-04-06T05:34:00.865Z,-2.37
2023-04-06T05:35:00.840Z,-2.37
2023-04-06T05:36:00.867Z,-2.35
2023-04-06T05:37:00.824Z,-2.37
2023-04-06T05:38:00.792Z,-2.37
2023-04-06T05:39:00.782Z,-2.35
2023-04-06T05:40:00.845Z,-2.33
2023-04-06T05:41:00.790Z,-2.33
2023-04-06T05:42:00.771Z,-2.35
2023-04-06T05:43:00.776Z,-2.35
2023-04-06T05:44:00.706Z,-2.35
2023-04-06T05:45:00.745Z,-2.38
2023-04-06T05:46:00.731Z,-2.37
2023-04-06T05:47:00.734Z,-2.37
2023-04-06T05:48:00.713Z,-2.37
2023-04-06T05:49:00.698Z,-2.35
2023-04-06T05:50:00.714Z,-2.35
2023-04-06T05:51:00.693Z,-2.33
2023-04-06T05:52:00.643Z,-2.32
2023-04-06T05:53:00.642Z,-2.32
2023-04-06T05:54:00.644Z,-2.33
2023-04-06T05:55:00.614Z,-2.32
2023-04-06T05:56:00.604Z,-2.33
2023-04-06T05:57:00.603Z,-2.32
2023-04-06T05:58:00.573Z,-2.29
2023-04-06T05:59:00.633Z,-2.32
2023-04-06T06:00:00.551Z,-2.28
2023-04-06T06:01:00.548Z,-2.29
2023-04-06T06:02:00.587Z,-2.28
2023-04-06T06:03:00.559Z,-2.28
2023-04-06T06:04:00.509Z,-2.26
2023-04-06T06:05:00.542Z,-2.26
2023-04-06T06:06:00.555Z,-2.28
2023-04-06T06:07:00.479Z,-2.26
2023-04-06T06:08:00.473Z,-2.24
2023-04-06T06:09:00.455Z,-2.25
2023-04-06T06:10:00.439Z,-2.24
2023-04-06T06:11:00.471Z,-2.24
2023-04-06T06:12:00.427Z,-2.24
2023-04-06T06:13:00.702Z,-2.24
2023-04-06T06:14:00.411Z,-2.24
2023-04-06T06:15:00.386Z,-2.22
2023-04-06T06:16:00.429Z,-2.24
2023-04-06T06:17:00.413Z,-2.21
2023-04-06T06:18:00.416Z,-2.19
2023-04-06T06:19:00.357Z,-2.14
2023-04-06T06:20:00.339Z,-2.14
2023-04-06T06:21:00.342Z,-2.13
2023-04-06T06:22:00.299Z,-2.13
2023-04-06T06:23:00.301Z,-2.11
2023-04-06T06:24:00.288Z,-2.10
2023-04-06T06:25:00.285Z,-2.10
2023-04-06T06:26:00.419Z,-2.11
2023-04-06T06:27:00.296Z,-2.08
2023-04-06T06:28:00.258Z,-2.07
2023-04-06T06:29:00.247Z,-2.04
2023-04-06T06:30:00.234Z,-2.03
2023-04-06T06:31:00.222Z,-2.00
2023-04-06T06:32:00.406Z,-1.98
2023-04-06T06:33:00.289Z,-1.96
2023-04-06T06:34:00.188Z,-1.95
2023-04-06T06:35:00.201Z,-1.96
2023-04-06T06:36:00.224Z,-1.95
2023-04-06T06:37:00.162Z,-1.93
2023-04-06T06:38:00.164Z,-1.93
2023-04-06T06:39:00.149Z,-1.95
2023-04-06T06:40:00.151Z,-1.95
2023-04-06T06:41:00.166Z,-1.93
2023-04-06T06:42:00.156Z,-1.93
2023-04-06T06:43:00.357Z,-1.90
2023-04-06T06:44:00.107Z,-1.89
2023-04-06T06:45:00.109Z,-1.86
2023-04-06T06:46:00.162Z,-1.86
2023-04-06T06:47:00.045Z,-1.80
2023-04-06T06:48:00.068Z,-1.80
2023-04-06T06:49:00.037Z,-1.78
2023-04-06T06:50:00.035Z,-1.77
2023-04-06T06:51:00.048Z,-1.74
2023-04-06T06:52:00.014Z,-1.72
2023-04-06T06:52:59.989Z,-1.72
2023-04-06T06:53:59.947Z,-1.68
2023-04-06T06:55:00.006Z,-1.68
2023-04-06T06:55:59.942Z,-1.65
2023-04-06T06:56:59.956Z,-1.64
2023-04-06T06:57:59.951Z,-1.57
2023-04-06T06:58:59.969Z,-1.56
2023-04-06T06:59:59.908Z,-1.51
2023-04-06T07:00:59.959Z,-1.49
2023-04-06T07:01:59.926Z,-1.46
2023-04-06T07:02:59.984Z,-1.43
2023-04-06T07:03:59.884Z,-1.39
2023-04-06T07:04:59.893Z,-1.35
2023-04-06T07:05:59.838Z,-1.32
2023-04-06T07:06:59.822Z,-1.29
2023-04-06T07:07:59.828Z,-1.26
2023-04-06T07:08:59.825Z,-1.25
2023-04-06T07:09:59.828Z,-1.21
2023-04-06T07:10:59.803Z,-1.20
2023-04-06T07:11:59.786Z,-1.18
2023-04-06T07:12:59.787Z,-1.17
2023-04-06T07:13:59.749Z,-1.14
2023-04-06T07:14:59.755Z,-1.11
2023-04-06T07:15:59.737Z,-1.08
2023-04-06T07:16:59.797Z,-1.03
2023-04-06T07:17:59.736Z,-1.02
2023-04-06T07:18:59.728Z,-0.99
2023-04-06T07:19:59.693Z,-0.99
2023-04-06T07:20:59.679Z,-0.96
2023-04-06T07:21:59.686Z,-0.93
2023-04-06T07:22:59.662Z,-0.93
2023-04-06T07:23:59.652Z,-0.89
2023-04-06T07:25:00.297Z,-0.85
2023-04-06T07:25:59.615Z,-0.81
2023-04-06T07:26:59.615Z,-0.80
2023-04-06T07:27:59.622Z,-0.76
2023-04-06T07:28:59.594Z,-0.73
2023-04-06T07:29:59.602Z,-0.68
2023-04-06T07:30:59.587Z,-0.67
2023-04-06T07:31:59.593Z,-0.63
2023-04-06T07:32:59.575Z,-0.62
2023-04-06T07:33:59.535Z,-0.60
2023-04-06T07:34:59.509Z,-0.55
2023-04-06T07:35:59.586Z,-0.52
2023-04-06T07:37:00.616Z,-0.52
2023-04-06T07:37:59.497Z,-0.49
2023-04-06T07:38:59.519Z,-0.42
2023-04-06T07:39:59.504Z,-0.39
2023-04-06T07:40:59.496Z,-0.34
2023-04-06T07:41:59.487Z,-0.30
2023-04-06T07:42:59.450Z,-0.24
2023-04-06T07:43:59.419Z,-0.19
2023-04-06T07:44:59.430Z,-0.12
2023-04-06T07:45:59.471Z,-0.09
2023-04-06T07:46:59.414Z,-0.05
2023-04-06T07:47:59.460Z,-0.01
2023-04-06T07:48:59.395Z,-0.01
2023-04-06T07:49:59.374Z,0.02
2023-04-06T07:50:59.361Z,0.08
2023-04-06T07:51:59.341Z,0.10
2023-04-06T07:52:59.345Z,0.16
2023-04-06T07:53:59.345Z,0.22
2023-04-06T07:54:59.289Z,0.25
2023-04-06T07:55:59.324Z,0.31
2023-04-06T07:56:59.284Z,0.35
2023-04-06T07:57:59.285Z,0.38
2023-04-06T07:58:59.332Z,0.43
2023-04-06T07:59:59.277Z,0.48
2023-04-06T08:00:59.367Z,0.52
2023-04-06T08:01:59.244Z,0.57
2023-04-06T08:02:59.306Z,0.62
2023-04-06T08:03:59.367Z,0.64
2023-04-06T08:04:59.273Z,0.70
2023-04-06T08:05:59.187Z,0.72
2023-04-06T08:06:59.194Z,0.74
2023-04-06T08:07:59.182Z,0.80
2023-04-06T08:08:59.164Z,0.82
2023-04-06T08:09:59.172Z,0.89
2023-04-06T08:11:01.487Z,0.93
2023-04-06T08:11:59.139Z,1.04
2023-04-06T08:12:59.129Z,1.13
2023-04-06T08:13:59.105Z,1.31
2023-04-06T08:14:59.088Z,1.46
2023-04-06T08:15:59.159Z,1.60
2023-04-06T08:16:59.065Z,1.71
2023-04-06T08:17:59.096Z,1.85
2023-04-06T08:18:59.070Z,1.98
2023-04-06T08:19:59.044Z,2.07
2023-04-06T08:20:59.031Z,2.22
2023-04-06T08:21:59.088Z,2.27
2023-04-06T08:22:59.019Z,2.37
2023-04-06T08:23:59.003Z,2.48
2023-04-06T08:24:58.985Z,2.56
2023-04-06T08:25:58.983Z,2.63
2023-04-06T08:26:58.978Z,2.69
2023-04-06T08:27:58.972Z,2.76
2023-04-06T08:28:58.929Z,2.79
2023-04-06T08:29:58.940Z,2.86
2023-04-06T08:30:58.954Z,2.92
2023-04-06T08:31:58.925Z,2.99
2023-04-06T08:32:58.912Z,3.12
2023-04-06T08:33:58.904Z,3.26
2023-04-06T08:34:58.896Z,3.41
2023-04-06T08:35:58.900Z,3.60
2023-04-06T08:36:58.862Z,3.70
2023-04-06T08:37:58.855Z,3.81
2023-04-06T08:38:58.854Z,3.99
2023-04-06T08:39:58.832Z,4.06
2023-04-06T08:40:58.815Z,4.10
2023-04-06T08:41:58.811Z,4.18
2023-04-06T08:42:58.777Z,4.28
2023-04-06T08:43:58.789Z,4.44
2023-04-06T08:44:58.766Z,4.59
2023-04-06T08:45:58.804Z,4.71
2023-04-06T08:46:58.747Z,4.77
2023-04-06T08:47:58.830Z,4.79
2023-04-06T08:48:58.734Z,4.80
2023-04-06T08:49:58.737Z,4.86
2023-04-06T08:50:58.686Z,4.93
2023-04-06T08:51:58.750Z,5.08
2023-04-06T08:52:58.680Z,5.22
2023-04-06T08:53:58.692Z,5.33
2023-04-06T08:54:58.663Z,5.40
2023-04-06T08:55:58.664Z,5.52
2023-04-06T08:56:58.662Z,5.66
2023-04-06T08:57:58.610Z,5.78
2023-04-06T08:58:58.639Z,5.81
2023-04-06T08:59:58.595Z,5.96
2023-04-06T09:00:58.626Z,6.06
2023-04-06T09:01:58.662Z,6.13
2023-04-06T09:02:58.664Z,6.17
2023-04-06T09:03:58.844Z,6.28
2023-04-06T09:04:58.576Z,6.36
2023-04-06T09:05:58.532Z,6.45
2023-04-06T09:06:58.532Z,6.54
2023-04-06T09:07:58.530Z,6.64
2023-04-06T09:08:58.485Z,6.72
2023-04-06T09:09:58.519Z,6.83
2023-04-06T09:10:58.499Z,6.90
2023-04-06T09:11:58.480Z,6.97
2023-04-06T09:12:58.457Z,7.09
2023-04-06T09:13:58.444Z,7.15
2023-04-06T09:14:58.441Z,7.23
2023-04-06T09:15:58.486Z,7.29
2023-04-06T09:16:58.414Z,7.36
2023-04-06T09:17:58.419Z,7.44
2023-04-06T09:18:58.537Z,7.51
2023-04-06T09:19:58.395Z,7.55
2023-04-06T09:20:58.376Z,7.63
2023-04-06T09:21:58.361Z,7.71
2023-04-06T09:22:58.360Z,7.76
2023-04-06T09:23:58.352Z,7.86
2023-04-06T09:24:58.331Z,7.92
2023-04-06T09:25:58.365Z,8.00
2023-04-06T09:26:58.301Z,8.06
2023-04-06T09:27:58.828Z,8.14
2023-04-06T09:28:58.272Z,8.24
2023-04-06T09:29:58.276Z,8.31
2023-04-06T09:30:58.307Z,8.39
2023-04-06T09:31:58.324Z,8.45
2023-04-06T09:32:58.307Z,8.47
2023-04-06T09:33:58.375Z,8.55
2023-04-06T09:34:58.236Z,8.63
2023-04-06T09:35:58.253Z,8.71
2023-04-06T09:36:58.203Z,8.76
2023-04-06T09:37:58.185Z,8.80
2023-04-06T09:38:58.160Z,8.89
2023-04-06T09:39:58.155Z,8.93
2023-04-06T09:41:01.350Z,8.98
2023-04-06T09:41:58.165Z,9.01
2023-04-06T09:42:58.127Z,9.03
2023-04-06T09:43:58.125Z,9.08
2023-04-06T09:44:58.137Z,9.15
2023-04-06T09:45:58.114Z,9.19
2023-04-06T09:47:00.851Z,9.20
2023-04-06T09:47:58.190Z,9.23
2023-04-06T09:48:58.057Z,9.30
2023-04-06T09:49:58.064Z,9.37
2023-04-06T09:50:58.057Z,9.41
2023-04-06T09:51:58.039Z,9.48
2023-04-06T09:52:58.016Z,9.53
2023-04-06T09:53:58.003Z,9.56
2023-04-06T09:54:57.995Z,9.60
2023-04-06T09:55:58.017Z,9.67
2023-04-06T09:56:57.983Z,9.65
2023-04-06T09:57:58.029Z,9.60
2023-04-06T09:58:57.970Z,9.63
2023-04-06T09:59:57.954Z,9.68
2023-04-06T10:00:57.958Z,9.74
2023-04-06T10:01:57.902Z,9.77
2023-04-06T10:02:58.034Z,9.75
2023-04-06T10:03:58.057Z,9.73
2023-04-06T10:04:57.874Z,9.75
2023-04-06T10:05:57.859Z,9.78
2023-04-06T10:06:57.848Z,9.73
2023-04-06T10:08:00.766Z,9.71
2023-04-06T10:08:57.859Z,9.71
2023-04-06T10:09:57.872Z,9.68
2023-04-06T10:10:57.813Z,9.67
2023-04-06T10:11:57.812Z,9.71
2023-04-06T10:12:57.796Z,9.73
2023-04-06T10:13:57.765Z,9.75
2023-04-06T10:14:57.763Z,9.70
2023-04-06T10:15:57.806Z,9.74
2023-04-06T10:16:57.732Z,9.81
2023-04-06T10:17:57.768Z,9.89
2023-04-06T10:18:57.723Z,9.93
2023-04-06T10:19:57.699Z,9.96
2023-04-06T10:20:57.687Z,9.98
2023-04-06T10:21:57.704Z,9.99
2023-04-06T10:22:57.677Z,9.95
2023-04-06T10:23:57.655Z,9.91
2023-04-06T10:24:57.738Z,10.04
2023-04-06T10:25:57.638Z,10.18
2023-04-06T10:26:57.619Z,10.24
2023-04-06T10:27:57.629Z,10.29
2023-04-06T10:28:57.609Z,10.32
2023-04-06T10:29:57.597Z,10.38
2023-04-06T10:30:57.577Z,10.38
2023-04-06T10:31:57.605Z,10.39
2023-04-06T10:32:57.578Z,10.51
2023-04-06T10:33:57.615Z,10.57
2023-04-06T10:34:57.555Z,10.60
2023-04-06T10:35:57.632Z,10.58
2023-04-06T10:36:57.516Z,10.58
2023-04-06T10:37:57.509Z,10.55
2023-04-06T10:38:57.473Z,10.52
2023-04-06T10:39:57.502Z,10.52
2023-04-06T10:40:57.488Z,10.42
2023-04-06T10:41:57.489Z,10.26
2023-04-06T10:42:57.508Z,10.22
2023-04-06T10:43:57.439Z,10.22
2023-04-06T10:44:57.424Z,10.24
2023-04-06T10:45:57.532Z,10.28
2023-04-06T10:46:57.427Z,10.32
2023-04-06T10:47:57.412Z,10.43
2023-04-06T10:48:57.378Z,10.51
2023-04-06T10:49:57.391Z,10.66
2023-04-06T10:50:57.357Z,10.86
2023-04-06T10:51:57.376Z,10.99
2023-04-06T10:52:57.352Z,11.08
2023-04-06T10:53:57.341Z,11.16
2023-04-06T10:54:57.312Z,11.26
2023-04-06T10:55:57.308Z,11.27
2023-04-06T10:56:57.352Z,11.20
2023-04-06T10:57:57.286Z,11.13
2023-04-06T10:58:57.356Z,11.06
2023-04-06T10:59:57.274Z,10.93
2023-04-06T11:00:57.275Z,10.69
2023-04-06T11:01:57.265Z,10.60
2023-04-06T11:02:57.251Z,10.63
2023-04-06T11:03:57.233Z,10.68
2023-04-06T11:04:57.207Z,10.73
2023-04-06T11:05:57.220Z,10.69
2023-04-06T11:06:57.186Z,10.66
2023-04-06T11:07:57.227Z,10.65
2023-04-06T11:08:57.161Z,10.69
2023-04-06T11:10:13.901Z,10.76
2023-04-06T11:10:57.139Z,10.81
2023-04-06T11:11:57.136Z,10.80
2023-04-06T11:12:57.168Z,10.80
2023-04-06T11:13:57.145Z,10.76
2023-04-06T11:14:57.108Z,10.72
2023-04-06T11:15:57.082Z,10.73
2023-04-06T11:16:57.152Z,10.80
2023-04-06T11:17:57.111Z,10.90
2023-04-06T11:18:57.101Z,11.02
2023-04-06T11:19:57.037Z,11.11
2023-04-06T11:20:57.019Z,11.26
2023-04-06T11:21:59.846Z,11.36
2023-04-06T11:22:57.011Z,11.45
2023-04-06T11:23:56.998Z,11.49
2023-04-06T11:24:56.990Z,11.57
2023-04-06T11:25:56.970Z,11.66
2023-04-06T11:26:56.977Z,11.77
2023-04-06T11:27:56.948Z,11.81
2023-04-06T11:28:56.937Z,11.82
2023-04-06T11:29:56.933Z,11.78
2023-04-06T11:30:56.933Z,11.77
2023-04-06T11:31:56.912Z,11.67
2023-04-06T11:32:56.933Z,11.46
2023-04-06T11:33:56.877Z,11.36
2023-04-06T11:34:56.881Z,11.30
2023-04-06T11:35:56.930Z,11.24
2023-04-06T11:36:56.853Z,11.11
2023-04-06T11:37:57.577Z,11.11
2023-04-06T11:38:56.820Z,11.20
2023-04-06T11:39:56.894Z,11.31
2023-04-06T11:40:56.822Z,11.38
2023-04-06T11:41:56.783Z,11.42
2023-04-06T11:42:56.846Z,11.51
2023-04-06T11:43:56.786Z,11.56
2023-04-06T11:44:56.752Z,11.63
2023-04-06T11:45:56.832Z,11.69
2023-04-06T11:46:57.040Z,11.77
2023-04-06T11:47:56.853Z,11.84
2023-04-06T11:48:56.806Z,11.88
2023-04-06T11:49:56.721Z,11.93
2023-04-06T11:50:56.704Z,11.94
2023-04-06T11:51:56.667Z,11.98
2023-04-06T11:52:56.672Z,12.03
2023-04-06T11:53:56.656Z,12.12
2023-04-06T11:54:56.650Z,12.22
2023-04-06T11:55:56.646Z,12.36
2023-04-06T11:56:56.616Z,12.48
2023-04-06T11:57:56.625Z,12.59
2023-04-06T11:58:56.625Z,12.66
2023-04-06T11:59:56.625Z,12.62
2023-04-06T12:00:56.580Z,12.58
2023-04-06T12:01:56.652Z,12.61
2023-04-06T12:02:56.635Z,12.63
2023-04-06T12:03:56.670Z,12.63
2023-04-06T12:04:56.521Z,12.56
2023-04-06T12:05:57.551Z,12.56
2023-04-06T12:06:56.516Z,12.56
2023-04-06T12:07:56.988Z,12.61
2023-04-06T12:08:56.488Z,12.69
2023-04-06T12:09:56.476Z,12.73
2023-04-06T12:10:56.474Z,12.74
2023-04-06T12:11:56.446Z,12.49
2023-04-06T12:12:56.461Z,12.41
2023-04-06T12:13:56.446Z,12.52
2023-04-06T12:14:56.430Z,12.73
2023-04-06T12:15:56.436Z,12.85
2023-04-06T12:16:56.406Z,12.91
2023-04-06T12:17:56.407Z,12.99
2023-04-06T12:18:56.372Z,13.03
2023-04-06T12:20:01.818Z,13.03
2023-04-06T12:20:56.375Z,12.98
2023-04-06T12:21:56.342Z,12.96
2023-04-06T12:22:56.328Z,12.98
2023-04-06T12:23:56.326Z,13.03
2023-04-06T12:24:56.310Z,13.12
2023-04-06T12:25:56.303Z,13.16
2023-04-06T12:27:06.907Z,13.09
2023-04-06T12:27:56.269Z,13.06
2023-04-06T12:28:56.256Z,12.76
2023-04-06T12:29:56.251Z,12.76
2023-04-06T12:30:56.606Z,12.87
2023-04-06T12:31:56.330Z,12.96
2023-04-06T12:32:56.321Z,13.07
2023-04-06T12:33:56.206Z,13.17
2023-04-06T12:34:56.196Z,13.27
2023-04-06T12:35:56.184Z,13.36
2023-04-06T12:36:56.218Z,13.47
2023-04-06T12:37:56.171Z,13.61
2023-04-06T12:38:56.185Z,13.71
2023-04-06T12:39:56.166Z,13.81
2023-04-06T12:40:56.156Z,13.88
2023-04-06T12:41:56.136Z,13.93
2023-04-06T12:42:56.119Z,13.96
2023-04-06T12:43:56.092Z,14.02
2023-04-06T12:44:56.067Z,13.86
2023-04-06T12:45:56.061Z,13.87
2023-04-06T12:46:56.082Z,13.87
2023-04-06T12:47:56.148Z,13.88
2023-04-06T12:48:56.082Z,13.87
2023-04-06T12:49:56.036Z,13.86
2023-04-06T12:50:56.019Z,13.79
2023-04-06T12:51:55.999Z,13.66
2023-04-06T12:52:56.003Z,13.72
2023-04-06T12:53:55.989Z,13.79
2023-04-06T12:54:55.982Z,13.84
2023-04-06T12:55:55.953Z,13.93
2023-04-06T12:56:55.972Z,14.01